sensor_id;sensor_type;location;lat;lon;timestamp;P1;P2;P0
72509;PMS5003;60532;56.114;40.350;2022-12-07T00:01:53;9.00;6.75;4.00
72509;PMS5003;60532;56.114;40.350;2022-12-07T00:03:54;12.50;9.75;6.00
72509;PMS5003;60532;56.114;40.350;2022-12-07T00:05:57;15.40;9.40;4.00
72509;PMS5003;60532;56.114;40.350;2022-12-07T00:07:58;10.00;10.00;5.00
72509;PMS5003;60532;56.114;40.350;2022-12-07T00:09:58;11.75;9.00;4.00
72509;PMS5003;60532;56.114;40.350;2022-12-07T00:11:58;14.75;10.50;3.75
72509;PMS5003;60532;56.114;40.350;2022-12-07T00:14:00;11.50;9.75;3.00
72509;PMS5003;60532;56.114;40.350;2022-12-07T00:16:12;6.20;4.00;3.00
72509;PMS5003;60532;56.114;40.350;2022-12-07T00:18:13;14.00;7.40;4.00
72509;PMS5003;60532;56.114;40.350;2022-12-07T00:20:13;15.00;9.00;3.00
72509;PMS5003;60532;56.114;40.350;2022-12-07T00:22:16;10.00;9.75;4.00
72509;PMS5003;60532;56.114;40.350;2022-12-07T00:24:17;11.00;6.20;2.20
72509;PMS5003;60532;56.114;40.350;2022-12-07T00:26:21;12.25;7.00;3.00
72509;PMS5003;60532;56.114;40.350;2022-12-07T00:28:22;10.80;7.00;3.40
72509;PMS5003;60532;56.114;40.350;2022-12-07T00:30:23;13.00;13.00;4.00
72509;PMS5003;60532;56.114;40.350;2022-12-07T00:32:23;18.00;9.25;4.00
72509;PMS5003;60532;56.114;40.350;2022-12-07T00:34:24;10.75;8.00;3.50
72509;PMS5003;60532;56.114;40.350;2022-12-07T00:36:24;3.75;2.00;1.00
72509;PMS5003;60532;56.114;40.350;2022-12-07T00:38:26;13.50;9.25;4.00
72509;PMS5003;60532;56.114;40.350;2022-12-07T00:40:27;18.20;9.40;4.00
72509;PMS5003;60532;56.114;40.350;2022-12-07T00:42:28;10.00;9.00;3.75
72509;PMS5003;60532;56.114;40.350;2022-12-07T00:44:28;9.00;9.00;3.00
72509;PMS5003;60532;56.114;40.350;2022-12-07T00:46:29;6.75;3.00;1.00
72509;PMS5003;60532;56.114;40.350;2022-12-07T00:48:29;9.50;7.00;3.75
72509;PMS5003;60532;56.114;40.350;2022-12-07T00:50:30;12.75;8.00;3.00
72509;PMS5003;60532;56.114;40.350;2022-12-07T00:52:30;13.00;9.00;3.50
72509;PMS5003;60532;56.114;40.350;2022-12-07T00:54:31;12.50;8.00;4.00
72509;PMS5003;60532;56.114;40.350;2022-12-07T00:56:31;10.00;9.75;4.00
72509;PMS5003;60532;56.114;40.350;2022-12-07T00:58:32;11.75;7.00;3.50
72509;PMS5003;60532;56.114;40.350;2022-12-07T01:00:33;12.00;10.00;3.50
72509;PMS5003;60532;56.114;40.350;2022-12-07T01:02:35;14.40;7.80;3.40
72509;PMS5003;60532;56.114;40.350;2022-12-07T01:04:35;12.25;9.25;3.00
72509;PMS5003;60532;56.114;40.350;2022-12-07T01:06:35;13.50;9.50;5.00
72509;PMS5003;60532;56.114;40.350;2022-12-07T01:08:36;7.00;7.00;0.75
72509;PMS5003;60532;56.114;40.350;2022-12-07T01:10:36;16.00;10.00;4.00
72509;PMS5003;60532;56.114;40.350;2022-12-07T01:12:37;13.25;7.00;4.00
72509;PMS5003;60532;56.114;40.350;2022-12-07T01:14:37;18.00;13.00;4.00
72509;PMS5003;60532;56.114;40.350;2022-12-07T01:16:38;13.00;10.00;4.00
72509;PMS5003;60532;56.114;40.350;2022-12-07T01:18:39;12.75;9.50;6.00
72509;PMS5003;60532;56.114;40.350;2022-12-07T01:20:39;20.00;8.50;6.00
72509;PMS5003;60532;56.114;40.350;2022-12-07T01:22:40;20.50;14.00;6.00
72509;PMS5003;60532;56.114;40.350;2022-12-07T01:24:41;15.25;12.00;6.00
72509;PMS5003;60532;56.114;40.350;2022-12-07T01:26:41;22.25;15.50;6.00
72509;PMS5003;60532;56.114;40.350;2022-12-07T01:28:42;15.75;12.25;6.00
72509;PMS5003;60532;56.114;40.350;2022-12-07T01:30:42;18.75;9.50;4.00
72509;PMS5003;60532;56.114;40.350;2022-12-07T01:32:43;15.25;10.00;4.00
72509;PMS5003;60532;56.114;40.350;2022-12-07T01:34:43;17.00;12.50;4.00
72509;PMS5003;60532;56.114;40.350;2022-12-07T01:36:44;18.00;12.00;4.00
72509;PMS5003;60532;56.114;40.350;2022-12-07T01:38:45;14.75;10.50;4.00
72509;PMS5003;60532;56.114;40.350;2022-12-07T01:40:53;14.60;12.60;4.00
72509;PMS5003;60532;56.114;40.350;2022-12-07T01:42:54;17.80;14.40;6.60
72509;PMS5003;60532;56.114;40.350;2022-12-07T01:47:13;15.60;12.40;6.00
72509;PMS5003;60532;56.114;40.350;2022-12-07T01:49:16;16.50;13.25;6.00
72509;PMS5003;60532;56.114;40.350;2022-12-07T01:51:17;21.20;15.00;7.00
72509;PMS5003;60532;56.114;40.350;2022-12-07T01:53:18;22.00;15.25;6.25
72509;PMS5003;60532;56.114;40.350;2022-12-07T01:55:18;22.25;16.50;7.50
72509;PMS5003;60532;56.114;40.350;2022-12-07T01:57:19;12.00;9.00;2.00
72509;PMS5003;60532;56.114;40.350;2022-12-07T01:59:21;23.00;15.00;7.00
72509;PMS5003;60532;56.114;40.350;2022-12-07T02:01:23;18.20;12.00;6.00
72509;PMS5003;60532;56.114;40.350;2022-12-07T02:03:42;18.00;12.50;6.25
72509;PMS5003;60532;56.114;40.350;2022-12-07T02:05:44;16.60;6.40;3.80
72509;PMS5003;60532;56.114;40.350;2022-12-07T02:07:47;13.20;12.60;6.00
72509;PMS5003;60532;56.114;40.350;2022-12-07T02:09:48;14.60;12.00;5.20
72509;PMS5003;60532;56.114;40.350;2022-12-07T02:11:48;15.75;13.75;5.00
72509;PMS5003;60532;56.114;40.350;2022-12-07T02:13:49;14.40;12.00;4.80
72509;PMS5003;60532;56.114;40.350;2022-12-07T02:30:50;14.50;9.75;4.50
72509;PMS5003;60532;56.114;40.350;2022-12-07T02:34:58;19.80;15.80;8.60
72509;PMS5003;60532;56.114;40.350;2022-12-07T02:37:07;20.60;12.80;3.80
72509;PMS5003;60532;56.114;40.350;2022-12-07T02:39:22;36.00;21.20;9.00
72509;PMS5003;60532;56.114;40.350;2022-12-07T02:41:26;27.20;18.80;9.00
72509;PMS5003;60532;56.114;40.350;2022-12-07T02:43:30;30.20;19.80;9.20
72509;PMS5003;60532;56.114;40.350;2022-12-07T02:45:31;32.20;16.00;6.60
72509;PMS5003;60532;56.114;40.350;2022-12-07T02:47:34;18.00;17.20;7.00
72509;PMS5003;60532;56.114;40.350;2022-12-07T02:49:36;13.80;9.60;5.20
72509;PMS5003;60532;56.114;40.350;2022-12-07T02:51:41;20.20;13.20;3.60
72509;PMS5003;60532;56.114;40.350;2022-12-07T02:53:43;15.40;10.80;4.00
72509;PMS5003;60532;56.114;40.350;2022-12-07T02:55:43;12.20;9.20;0.60
72509;PMS5003;60532;56.114;40.350;2022-12-07T03:00:05;12.00;9.40;3.00
72509;PMS5003;60532;56.114;40.350;2022-12-07T03:06:42;21.80;12.40;4.40
72509;PMS5003;60532;56.114;40.350;2022-12-07T03:08:53;18.00;12.00;6.00
72509;PMS5003;60532;56.114;40.350;2022-12-07T03:10:58;10.40;9.20;4.40
72509;PMS5003;60532;56.114;40.350;2022-12-07T03:15:23;11.00;8.60;3.80
72509;PMS5003;60532;56.114;40.350;2022-12-07T03:17:27;12.00;12.00;4.80
72509;PMS5003;60532;56.114;40.350;2022-12-07T03:19:28;12.20;9.40;4.00
72509;PMS5003;60532;56.114;40.350;2022-12-07T03:21:33;21.60;12.80;4.00
72509;PMS5003;60532;56.114;40.350;2022-12-07T03:23:34;18.40;12.00;5.60
72509;PMS5003;60532;56.114;40.350;2022-12-07T03:25:45;14.20;10.00;4.00
72509;PMS5003;60532;56.114;40.350;2022-12-07T03:27:54;7.80;5.60;1.00
72509;PMS5003;60532;56.114;40.350;2022-12-07T03:34:41;12.80;9.00;3.00
72509;PMS5003;60532;56.114;40.350;2022-12-07T03:36:55;12.40;10.00;4.00
72509;PMS5003;60532;56.114;40.350;2022-12-07T03:38:59;18.20;9.80;4.00
72509;PMS5003;60532;56.114;40.350;2022-12-07T03:41:02;21.80;9.80;4.00
72509;PMS5003;60532;56.114;40.350;2022-12-07T03:43:04;16.80;12.20;5.60
72509;PMS5003;60532;56.114;40.350;2022-12-07T03:45:05;16.50;12.00;4.00
72509;PMS5003;60532;56.114;40.350;2022-12-07T03:47:09;20.80;14.20;6.40
72509;PMS5003;60532;56.114;40.350;2022-12-07T03:49:15;15.20;10.00;4.00
72509;PMS5003;60532;56.114;40.350;2022-12-07T03:51:20;19.80;10.60;3.00
72509;PMS5003;60532;56.114;40.350;2022-12-07T03:53:28;15.20;10.80;5.20
72509;PMS5003;60532;56.114;40.350;2022-12-07T03:55:31;16.80;12.00;6.00
72509;PMS5003;60532;56.114;40.350;2022-12-07T03:57:33;13.60;13.40;6.40
72509;PMS5003;60532;56.114;40.350;2022-12-07T03:59:33;18.75;14.50;3.50
72509;PMS5003;60532;56.114;40.350;2022-12-07T04:01:34;25.25;15.50;6.25
72509;PMS5003;60532;56.114;40.350;2022-12-07T04:03:35;14.75;9.25;5.50
72509;PMS5003;60532;56.114;40.350;2022-12-07T04:05:35;16.00;13.00;6.00
72509;PMS5003;60532;56.114;40.350;2022-12-07T04:07:36;19.25;12.50;4.50
72509;PMS5003;60532;56.114;40.350;2022-12-07T04:09:36;16.00;15.25;6.00
72509;PMS5003;60532;56.114;40.350;2022-12-07T04:11:37;22.75;15.00;6.50
72509;PMS5003;60532;56.114;40.350;2022-12-07T04:13:37;13.50;13.50;6.25
72509;PMS5003;60532;56.114;40.350;2022-12-07T04:15:56;15.00;10.80;6.40
72509;PMS5003;60532;56.114;40.350;2022-12-07T04:17:57;11.75;10.00;4.50
72509;PMS5003;60532;56.114;40.350;2022-12-07T04:19:57;14.75;9.75;6.50
72509;PMS5003;60532;56.114;40.350;2022-12-07T04:21:59;14.25;11.25;7.00
72509;PMS5003;60532;56.114;40.350;2022-12-07T04:24:00;21.80;12.60;6.40
72509;PMS5003;60532;56.114;40.350;2022-12-07T04:26:01;22.50;15.25;6.50
72509;PMS5003;60532;56.114;40.350;2022-12-07T04:28:01;16.50;14.50;5.50
72509;PMS5003;60532;56.114;40.350;2022-12-07T04:30:02;11.50;10.00;6.25
72509;PMS5003;60532;56.114;40.350;2022-12-07T04:32:02;17.50;12.00;6.00
72509;PMS5003;60532;56.114;40.350;2022-12-07T04:34:03;18.25;14.00;6.75
72509;PMS5003;60532;56.114;40.350;2022-12-07T04:36:04;15.80;10.60;3.80
72509;PMS5003;60532;56.114;40.350;2022-12-07T04:38:05;13.00;9.75;3.25
72509;PMS5003;60532;56.114;40.350;2022-12-07T04:40:07;15.40;11.20;5.20
72509;PMS5003;60532;56.114;40.350;2022-12-07T04:42:10;18.60;14.60;4.40
72509;PMS5003;60532;56.114;40.350;2022-12-07T04:44:13;12.40;7.60;1.00
72509;PMS5003;60532;56.114;40.350;2022-12-07T04:46:14;17.20;13.00;6.00
72509;PMS5003;60532;56.114;40.350;2022-12-07T04:48:15;12.00;12.00;6.25
72509;PMS5003;60532;56.114;40.350;2022-12-07T04:50:15;16.50;9.25;5.50
72509;PMS5003;60532;56.114;40.350;2022-12-07T04:52:16;17.50;10.00;6.25
72509;PMS5003;60532;56.114;40.350;2022-12-07T04:54:17;12.75;10.50;4.00
72509;PMS5003;60532;56.114;40.350;2022-12-07T04:56:17;18.60;12.00;3.40
72509;PMS5003;60532;56.114;40.350;2022-12-07T04:58:18;15.75;9.75;4.00
72509;PMS5003;60532;56.114;40.350;2022-12-07T05:00:18;13.50;10.50;6.50
72509;PMS5003;60532;56.114;40.350;2022-12-07T05:02:19;9.75;7.00;4.00
72509;PMS5003;60532;56.114;40.350;2022-12-07T05:04:20;14.75;11.00;5.00
72509;PMS5003;60532;56.114;40.350;2022-12-07T05:06:20;14.75;11.00;6.00
72509;PMS5003;60532;56.114;40.350;2022-12-07T05:08:20;25.00;15.50;6.25
72509;PMS5003;60532;56.114;40.350;2022-12-07T05:10:21;15.00;14.00;6.50
72509;PMS5003;60532;56.114;40.350;2022-12-07T05:12:21;18.00;12.50;6.75
72509;PMS5003;60532;56.114;40.350;2022-12-07T05:14:22;23.50;14.50;6.75
72509;PMS5003;60532;56.114;40.350;2022-12-07T05:16:22;20.00;16.00;6.50
72509;PMS5003;60532;56.114;40.350;2022-12-07T05:18:23;20.25;15.75;7.00
72509;PMS5003;60532;56.114;40.350;2022-12-07T05:20:23;18.25;12.00;9.00
72509;PMS5003;60532;56.114;40.350;2022-12-07T05:22:24;19.50;16.50;7.00
72509;PMS5003;60532;56.114;40.350;2022-12-07T05:24:28;19.20;13.00;6.80
72509;PMS5003;60532;56.114;40.350;2022-12-07T05:26:28;21.00;18.00;9.00
72509;PMS5003;60532;56.114;40.350;2022-12-07T05:28:29;24.00;19.00;9.00
72509;PMS5003;60532;56.114;40.350;2022-12-07T05:30:29;15.50;14.00;7.00
72509;PMS5003;60532;56.114;40.350;2022-12-07T05:32:30;32.75;13.25;4.50
72509;PMS5003;60532;56.114;40.350;2022-12-07T05:34:30;30.25;20.00;9.00
72509;PMS5003;60532;56.114;40.350;2022-12-07T05:36:31;21.50;15.00;7.50
72509;PMS5003;60532;56.114;40.350;2022-12-07T05:38:32;21.80;16.20;7.00
72509;PMS5003;60532;56.114;40.350;2022-12-07T05:40:33;18.80;15.20;7.80
72509;PMS5003;60532;56.114;40.350;2022-12-07T05:42:33;12.00;12.00;7.00
72509;PMS5003;60532;56.114;40.350;2022-12-07T05:44:34;24.75;13.00;6.25
72509;PMS5003;60532;56.114;40.350;2022-12-07T05:46:34;26.00;21.25;9.50
72509;PMS5003;60532;56.114;40.350;2022-12-07T05:48:35;29.00;23.00;9.75
72509;PMS5003;60532;56.114;40.350;2022-12-07T05:50:36;28.80;21.40;10.00
72509;PMS5003;60532;56.114;40.350;2022-12-07T05:52:37;32.75;22.00;10.00
72509;PMS5003;60532;56.114;40.350;2022-12-07T05:54:37;24.50;17.00;9.00
72509;PMS5003;60532;56.114;40.350;2022-12-07T05:56:38;31.00;21.50;9.00
72509;PMS5003;60532;56.114;40.350;2022-12-07T05:58:38;18.25;17.75;10.00
72509;PMS5003;60532;56.114;40.350;2022-12-07T06:00:57;21.40;13.40;6.00
72509;PMS5003;60532;56.114;40.350;2022-12-07T06:02:58;26.75;17.50;9.00
72509;PMS5003;60532;56.114;40.350;2022-12-07T06:04:58;14.00;11.50;2.00
72509;PMS5003;60532;56.114;40.350;2022-12-07T06:06:59;21.75;17.50;9.00
72509;PMS5003;60532;56.114;40.350;2022-12-07T06:08:59;31.50;23.75;10.00
72509;PMS5003;60532;56.114;40.350;2022-12-07T06:11:00;22.75;16.75;9.50
72509;PMS5003;60532;56.114;40.350;2022-12-07T06:13:23;24.60;20.20;9.00
72509;PMS5003;60532;56.114;40.350;2022-12-07T06:15:24;19.00;15.50;6.00
72509;PMS5003;60532;56.114;40.350;2022-12-07T06:17:24;24.75;19.00;8.50
72509;PMS5003;60532;56.114;40.350;2022-12-07T06:19:25;29.75;21.00;10.00
72509;PMS5003;60532;56.114;40.350;2022-12-07T06:21:26;20.75;20.00;8.75
72509;PMS5003;60532;56.114;40.350;2022-12-07T06:23:26;26.00;20.75;9.25
72509;PMS5003;60532;56.114;40.350;2022-12-07T06:25:27;26.25;20.50;11.50
72509;PMS5003;60532;56.114;40.350;2022-12-07T06:27:27;23.25;22.00;11.50
72509;PMS5003;60532;56.114;40.350;2022-12-07T06:29:28;23.00;20.50;9.75
72509;PMS5003;60532;56.114;40.350;2022-12-07T06:31:28;33.25;19.50;9.25
72509;PMS5003;60532;56.114;40.350;2022-12-07T06:33:29;28.00;18.00;9.00
72509;PMS5003;60532;56.114;40.350;2022-12-07T06:35:31;21.75;18.50;9.00
72509;PMS5003;60532;56.114;40.350;2022-12-07T06:37:32;28.00;17.80;8.20
72509;PMS5003;60532;56.114;40.350;2022-12-07T06:39:32;26.75;16.50;9.00
72509;PMS5003;60532;56.114;40.350;2022-12-07T06:41:33;25.75;19.00;9.75
72509;PMS5003;60532;56.114;40.350;2022-12-07T06:43:33;29.00;22.25;10.00
72509;PMS5003;60532;56.114;40.350;2022-12-07T06:45:34;22.25;18.00;8.50
72509;PMS5003;60532;56.114;40.350;2022-12-07T06:47:35;23.00;17.50;6.25
72509;PMS5003;60532;56.114;40.350;2022-12-07T06:49:35;31.00;24.25;11.50
72509;PMS5003;60532;56.114;40.350;2022-12-07T06:51:36;30.25;22.25;9.75
72509;PMS5003;60532;56.114;40.350;2022-12-07T06:53:40;30.40;21.00;10.80
72509;PMS5003;60532;56.114;40.350;2022-12-07T06:55:41;39.50;25.00;9.50
72509;PMS5003;60532;56.114;40.350;2022-12-07T06:57:42;28.25;23.00;12.00
72509;PMS5003;60532;56.114;40.350;2022-12-07T06:59:42;31.25;20.75;9.75
72509;PMS5003;60532;56.114;40.350;2022-12-07T07:01:42;27.50;21.25;12.25
72509;PMS5003;60532;56.114;40.350;2022-12-07T07:03:43;26.00;19.25;11.00
72509;PMS5003;60532;56.114;40.350;2022-12-07T07:05:44;29.00;19.80;11.80
72509;PMS5003;60532;56.114;40.350;2022-12-07T07:07:45;19.25;16.00;7.00
72509;PMS5003;60532;56.114;40.350;2022-12-07T07:09:45;27.50;22.50;11.00
72509;PMS5003;60532;56.114;40.350;2022-12-07T07:11:46;23.25;15.75;10.00
72509;PMS5003;60532;56.114;40.350;2022-12-07T07:13:46;15.00;11.50;6.00
72509;PMS5003;60532;56.114;40.350;2022-12-07T07:15:47;17.00;16.00;8.00
72509;PMS5003;60532;56.114;40.350;2022-12-07T07:17:47;18.00;17.25;7.00
72509;PMS5003;60532;56.114;40.350;2022-12-07T07:19:48;17.50;16.75;7.00
72509;PMS5003;60532;56.114;40.350;2022-12-07T07:21:48;19.00;16.00;7.00
72509;PMS5003;60532;56.114;40.350;2022-12-07T07:23:48;19.00;14.50;6.50
72509;PMS5003;60532;56.114;40.350;2022-12-07T07:25:49;25.00;18.25;9.00
72509;PMS5003;60532;56.114;40.350;2022-12-07T07:27:49;16.00;15.00;6.50
72509;PMS5003;60532;56.114;40.350;2022-12-07T07:29:50;28.75;18.25;9.00
72509;PMS5003;60532;56.114;40.350;2022-12-07T07:31:50;23.75;16.50;7.50
72509;PMS5003;60532;56.114;40.350;2022-12-07T07:33:51;24.25;18.00;9.50
72509;PMS5003;60532;56.114;40.350;2022-12-07T07:35:51;24.50;18.00;8.50
72509;PMS5003;60532;56.114;40.350;2022-12-07T07:37:52;18.25;15.25;7.00
72509;PMS5003;60532;56.114;40.350;2022-12-07T07:39:52;6.50;1.00;1.00
72509;PMS5003;60532;56.114;40.350;2022-12-07T07:41:53;24.00;22.50;11.00
72509;PMS5003;60532;56.114;40.350;2022-12-07T07:43:53;20.75;15.75;10.00
72509;PMS5003;60532;56.114;40.350;2022-12-07T07:45:54;29.25;18.25;10.00
72509;PMS5003;60532;56.114;40.350;2022-12-07T07:47:54;20.75;15.75;6.50
72509;PMS5003;60532;56.114;40.350;2022-12-07T07:49:54;24.50;18.50;7.00
72509;PMS5003;60532;56.114;40.350;2022-12-07T07:51:55;22.00;16.50;7.00
72509;PMS5003;60532;56.114;40.350;2022-12-07T07:53:55;23.50;19.00;9.00
72509;PMS5003;60532;56.114;40.350;2022-12-07T07:55:56;26.50;18.25;10.00
72509;PMS5003;60532;56.114;40.350;2022-12-07T07:57:56;20.25;15.00;7.50
72509;PMS5003;60532;56.114;40.350;2022-12-07T07:59:57;19.40;14.60;7.00
72509;PMS5003;60532;56.114;40.350;2022-12-07T08:01:58;19.00;15.75;8.50
72509;PMS5003;60532;56.114;40.350;2022-12-07T08:03:58;19.50;19.00;10.00
72509;PMS5003;60532;56.114;40.350;2022-12-07T08:05:59;25.00;17.50;6.50
72509;PMS5003;60532;56.114;40.350;2022-12-07T08:07:59;17.00;14.50;7.00
72509;PMS5003;60532;56.114;40.350;2022-12-07T08:10:00;20.00;15.25;6.50
72509;PMS5003;60532;56.114;40.350;2022-12-07T08:12:00;19.75;16.25;9.75
72509;PMS5003;60532;56.114;40.350;2022-12-07T08:14:01;16.50;12.25;6.00
72509;PMS5003;60532;56.114;40.350;2022-12-07T08:16:05;20.50;15.75;7.50
72509;PMS5003;60532;56.114;40.350;2022-12-07T08:18:06;27.40;15.00;7.00
72509;PMS5003;60532;56.114;40.350;2022-12-07T08:20:07;18.60;13.20;3.60
72509;PMS5003;60532;56.114;40.350;2022-12-07T08:22:08;23.50;18.00;7.00
72509;PMS5003;60532;56.114;40.350;2022-12-07T08:24:08;21.25;16.00;9.00
72509;PMS5003;60532;56.114;40.350;2022-12-07T08:26:10;18.25;13.00;6.00
72509;PMS5003;60532;56.114;40.350;2022-12-07T08:28:10;19.80;15.60;7.80
72509;PMS5003;60532;56.114;40.350;2022-12-07T08:30:11;20.50;17.50;6.50
72509;PMS5003;60532;56.114;40.350;2022-12-07T08:32:11;19.00;16.00;7.00
72509;PMS5003;60532;56.114;40.350;2022-12-07T08:34:12;23.50;15.75;5.50
72509;PMS5003;60532;56.114;40.350;2022-12-07T08:36:13;14.00;13.60;6.00
72509;PMS5003;60532;56.114;40.350;2022-12-07T08:38:13;22.50;15.25;6.25
72509;PMS5003;60532;56.114;40.350;2022-12-07T08:40:14;21.25;17.00;7.00
72509;PMS5003;60532;56.114;40.350;2022-12-07T08:42:15;24.60;17.20;8.20
72509;PMS5003;60532;56.114;40.350;2022-12-07T08:44:16;30.00;15.00;6.75
72509;PMS5003;60532;56.114;40.350;2022-12-07T08:46:21;23.25;19.00;7.00
72509;PMS5003;60532;56.114;40.350;2022-12-07T08:48:25;21.40;19.60;10.00
72509;PMS5003;60532;56.114;40.350;2022-12-07T08:50:25;16.50;13.00;7.00
72509;PMS5003;60532;56.114;40.350;2022-12-07T08:52:26;16.50;14.50;6.25
72509;PMS5003;60532;56.114;40.350;2022-12-07T08:54:27;19.00;18.00;9.50
72509;PMS5003;60532;56.114;40.350;2022-12-07T08:56:28;19.80;17.20;7.80
72509;PMS5003;60532;56.114;40.350;2022-12-07T08:58:29;21.75;16.00;7.00
72509;PMS5003;60532;56.114;40.350;2022-12-07T09:00:29;12.50;12.50;6.25
72509;PMS5003;60532;56.114;40.350;2022-12-07T09:02:30;20.50;14.50;7.00
72509;PMS5003;60532;56.114;40.350;2022-12-07T09:04:31;23.60;12.40;7.80
72509;PMS5003;60532;56.114;40.350;2022-12-07T09:06:31;19.75;14.75;4.50
72509;PMS5003;60532;56.114;40.350;2022-12-07T09:08:34;26.80;18.60;8.20
72509;PMS5003;60532;56.114;40.350;2022-12-07T09:10:35;26.80;17.20;6.80
72509;PMS5003;60532;56.114;40.350;2022-12-07T09:12:35;25.50;15.00;7.00
72509;PMS5003;60532;56.114;40.350;2022-12-07T09:14:36;25.50;16.50;9.00
72509;PMS5003;60532;56.114;40.350;2022-12-07T09:16:36;27.75;18.75;8.50
72509;PMS5003;60532;56.114;40.350;2022-12-07T09:18:37;9.75;9.50;3.25
72509;PMS5003;60532;56.114;40.350;2022-12-07T09:20:38;17.20;15.40;7.80
72509;PMS5003;60532;56.114;40.350;2022-12-07T09:22:38;15.75;12.75;6.75
72509;PMS5003;60532;56.114;40.350;2022-12-07T09:24:39;18.00;10.00;3.25
72509;PMS5003;60532;56.114;40.350;2022-12-07T09:26:39;21.75;15.00;6.50
72509;PMS5003;60532;56.114;40.350;2022-12-07T09:28:40;20.75;16.00;5.50
72509;PMS5003;60532;56.114;40.350;2022-12-07T09:30:47;18.00;12.75;6.00
72509;PMS5003;60532;56.114;40.350;2022-12-07T09:32:48;14.00;12.20;6.60
72509;PMS5003;60532;56.114;40.350;2022-12-07T09:34:48;18.50;15.00;7.00
72509;PMS5003;60532;56.114;40.350;2022-12-07T09:36:49;18.50;11.50;6.25
72509;PMS5003;60532;56.114;40.350;2022-12-07T09:38:49;18.50;14.75;8.00
72509;PMS5003;60532;56.114;40.350;2022-12-07T09:40:50;14.75;14.25;6.00
72509;PMS5003;60532;56.114;40.350;2022-12-07T09:42:51;16.00;12.50;6.00
72509;PMS5003;60532;56.114;40.350;2022-12-07T09:44:53;21.20;15.80;6.80
72509;PMS5003;60532;56.114;40.350;2022-12-07T09:46:53;23.00;16.25;5.50
72509;PMS5003;60532;56.114;40.350;2022-12-07T09:48:54;15.25;12.75;6.50
72509;PMS5003;60532;56.114;40.350;2022-12-07T09:50:54;15.50;13.50;6.25
72509;PMS5003;60532;56.114;40.350;2022-12-07T09:53:04;15.80;13.00;6.00
72509;PMS5003;60532;56.114;40.350;2022-12-07T09:55:10;13.40;11.00;6.00
72509;PMS5003;60532;56.114;40.350;2022-12-07T09:57:12;15.80;10.80;6.00
72509;PMS5003;60532;56.114;40.350;2022-12-07T09:59:13;18.75;13.25;5.00
72509;PMS5003;60532;56.114;40.350;2022-12-07T10:01:17;13.20;12.20;4.00
72509;PMS5003;60532;56.114;40.350;2022-12-07T10:03:18;16.40;12.60;6.00
72509;PMS5003;60532;56.114;40.350;2022-12-07T10:05:20;9.00;8.00;4.00
72509;PMS5003;60532;56.114;40.350;2022-12-07T10:07:23;13.00;8.60;3.20
72509;PMS5003;60532;56.114;40.350;2022-12-07T10:09:24;18.00;13.00;6.75
72509;PMS5003;60532;56.114;40.350;2022-12-07T10:11:25;14.20;13.40;4.00
72509;PMS5003;60532;56.114;40.350;2022-12-07T10:13:35;18.50;16.00;7.00
72509;PMS5003;60532;56.114;40.350;2022-12-07T10:17:47;19.60;15.20;7.00
72509;PMS5003;60532;56.114;40.350;2022-12-07T10:19:48;12.60;11.20;3.00
72509;PMS5003;60532;56.114;40.350;2022-12-07T10:22:02;16.00;15.00;5.50
72509;PMS5003;60532;56.114;40.350;2022-12-07T10:28:22;23.20;18.60;7.80
72509;PMS5003;60532;56.114;40.350;2022-12-07T10:30:23;21.25;18.00;7.00
72509;PMS5003;60532;56.114;40.350;2022-12-07T10:32:33;23.75;16.50;9.00
72509;PMS5003;60532;56.114;40.350;2022-12-07T10:34:35;20.00;15.00;7.80
72509;PMS5003;60532;56.114;40.350;2022-12-07T10:36:37;21.80;18.20;7.00
72509;PMS5003;60532;56.114;40.350;2022-12-07T10:38:38;21.20;17.40;6.20
72509;PMS5003;60532;56.114;40.350;2022-12-07T10:40:44;21.00;16.00;7.00
72509;PMS5003;60532;56.114;40.350;2022-12-07T10:42:44;12.75;12.25;7.00
72509;PMS5003;60532;56.114;40.350;2022-12-07T10:45:12;19.60;12.60;5.20
72509;PMS5003;60532;56.114;40.350;2022-12-07T10:47:34;23.20;16.00;6.00
72509;PMS5003;60532;56.114;40.350;2022-12-07T10:50:26;14.80;11.20;4.00
72509;PMS5003;60532;56.114;40.350;2022-12-07T10:54:08;21.00;15.40;7.80
72509;PMS5003;60532;56.114;40.350;2022-12-07T11:02:54;15.80;11.20;6.00
72509;PMS5003;60532;56.114;40.350;2022-12-07T11:19:49;13.25;11.25;7.50
72509;PMS5003;60532;56.114;40.350;2022-12-07T11:22:00;18.20;13.80;5.60
72509;PMS5003;60532;56.114;40.350;2022-12-07T11:24:07;29.20;15.80;7.80
72509;PMS5003;60532;56.114;40.350;2022-12-07T11:30:38;15.40;7.40;3.00
72509;PMS5003;60532;56.114;40.350;2022-12-07T11:32:51;21.20;13.80;6.00
72509;PMS5003;60532;56.114;40.350;2022-12-07T11:35:08;23.80;14.20;7.40
72509;PMS5003;60532;56.114;40.350;2022-12-07T11:37:13;20.60;15.00;6.00
72509;PMS5003;60532;56.114;40.350;2022-12-07T11:41:37;16.80;12.40;6.00
72509;PMS5003;60532;56.114;40.350;2022-12-07T11:43:56;16.00;14.60;6.00
72509;PMS5003;60532;56.114;40.350;2022-12-07T11:45:59;15.20;10.00;6.00
72509;PMS5003;60532;56.114;40.350;2022-12-07T11:48:05;18.40;8.20;0.00
72509;PMS5003;60532;56.114;40.350;2022-12-07T11:50:20;17.60;12.00;5.60
72509;PMS5003;60532;56.114;40.350;2022-12-07T11:52:24;11.20;3.60;0.40
72509;PMS5003;60532;56.114;40.350;2022-12-07T11:54:29;13.40;12.40;6.00
72509;PMS5003;60532;56.114;40.350;2022-12-07T11:56:30;14.40;11.20;6.00
72509;PMS5003;60532;56.114;40.350;2022-12-07T12:00:33;14.60;11.20;3.00
72509;PMS5003;60532;56.114;40.350;2022-12-07T12:02:41;12.75;10.00;4.00
72509;PMS5003;60532;56.114;40.350;2022-12-07T12:06:51;22.80;16.40;6.60
72509;PMS5003;60532;56.114;40.350;2022-12-07T12:13:25;17.00;15.25;7.00
72509;PMS5003;60532;56.114;40.350;2022-12-07T12:21:53;21.80;15.60;7.00
72509;PMS5003;60532;56.114;40.350;2022-12-07T12:24:06;17.60;14.20;6.40
72509;PMS5003;60532;56.114;40.350;2022-12-07T12:26:14;17.80;15.80;7.40
72509;PMS5003;60532;56.114;40.350;2022-12-07T12:28:34;18.60;12.80;6.20
72509;PMS5003;60532;56.114;40.350;2022-12-07T12:30:38;13.40;12.40;6.40
72509;PMS5003;60532;56.114;40.350;2022-12-07T12:32:39;24.60;15.20;6.00
72509;PMS5003;60532;56.114;40.350;2022-12-07T12:34:42;17.60;16.00;7.00
72509;PMS5003;60532;56.114;40.350;2022-12-07T12:36:57;21.40;15.20;6.20
72509;PMS5003;60532;56.114;40.350;2022-12-07T12:41:07;21.80;15.60;7.80
72509;PMS5003;60532;56.114;40.350;2022-12-07T12:43:47;23.40;13.00;6.00
72509;PMS5003;60532;56.114;40.350;2022-12-07T12:45:49;21.60;16.40;7.00
72509;PMS5003;60532;56.114;40.350;2022-12-07T12:52:47;24.00;14.60;6.40
72509;PMS5003;60532;56.114;40.350;2022-12-07T12:59:18;19.50;15.00;6.75
72509;PMS5003;60532;56.114;40.350;2022-12-07T13:03:31;19.20;14.20;6.60
72509;PMS5003;60532;56.114;40.350;2022-12-07T13:05:34;23.40;16.80;7.80
72509;PMS5003;60532;56.114;40.350;2022-12-07T13:09:44;25.40;15.80;9.00